createdAt,value
2023-04-07T00:04:28.119Z,101205.19
2023-04-07T00:09:29.938Z,101212.25
2023-04-07T00:14:31.363Z,101213.13
2023-04-07T00:19:33.752Z,101209.75
2023-04-07T00:24:35.612Z,101212.09
2023-04-07T00:29:37.174Z,101225.88
2023-04-07T00:34:38.625Z,101233.44
2023-04-07T00:39:40.071Z,101232.69
2023-04-07T00:44:41.567Z,101233.53
2023-04-07T00:49:43.157Z,101234.31
2023-04-07T00:54:46.918Z,101236.81
2023-04-07T00:59:50.605Z,101236.63
2023-04-07T01:04:59.264Z,101235.78
2023-04-07T01:10:06.555Z,101240.91
2023-04-07T01:15:11.256Z,101242.69
2023-04-07T01:20:16.394Z,101234.88
2023-04-07T01:25:28.021Z,101243.19
2023-04-07T01:30:32.458Z,101245.63
2023-04-07T01:35:35.969Z,101249.09
2023-04-07T01:40:39.676Z,101258.34
2023-04-07T01:45:42.262Z,101259.22
2023-04-07T01:50:45.831Z,101260.59
2023-04-07T01:55:47.508Z,101255.38
2023-04-07T02:00:50.687Z,101257.06
2023-04-07T02:05:55.993Z,101264.00
2023-04-07T02:10:59.706Z,101272.59
2023-04-07T02:16:02.381Z,101267.19
2023-04-07T02:21:04.565Z,101273.63
2023-04-07T02:26:06.268Z,101280.22
2023-04-07T02:31:07.647Z,101276.00
2023-04-07T02:36:09.185Z,101279.44
2023-04-07T02:41:11.092Z,101282.94
2023-04-07T02:46:13.284Z,101290.66
2023-04-07T02:51:16.361Z,101281.19
2023-04-07T02:56:17.793Z,101282.06
2023-04-07T03:01:19.603Z,101284.63
2023-04-07T03:06:21.021Z,101286.47
2023-04-07T03:11:22.487Z,101300.19
2023-04-07T03:16:23.945Z,101299.34
2023-04-07T03:21:25.415Z,101305.22
2023-04-07T03:26:26.872Z,101305.34
2023-04-07T03:31:28.478Z,101303.59
2023-04-07T03:36:31.616Z,101306.19
2023-04-07T03:41:33.093Z,101300.19
2023-04-07T03:46:34.530Z,101297.56
2023-04-07T03:51:35.942Z,101302.69
2023-04-07T03:56:37.430Z,101299.22
2023-04-07T04:01:38.947Z,101306.97
2023-04-07T04:06:40.726Z,101313.81
2023-04-07T04:11:42.236Z,101314.66
2023-04-07T04:16:43.703Z,101310.50
2023-04-07T04:21:46.102Z,101316.41
2023-04-07T04:26:47.524Z,101321.66
2023-04-07T04:31:49.043Z,101321.66
2023-04-07T04:36:50.663Z,101337.00
2023-04-07T04:41:52.196Z,101339.63
2023-04-07T04:46:53.730Z,101341.38
2023-04-07T04:51:55.212Z,101349.03
2023-04-07T04:56:57.296Z,101347.38
2023-04-07T05:01:58.814Z,101355.84
2023-04-07T05:07:00.566Z,101361.09
2023-04-07T05:12:02.591Z,101356.88
2023-04-07T05:17:04.061Z,101358.41
2023-04-07T05:22:05.640Z,101354.09
2023-04-07T05:27:07.066Z,101367.78
2023-04-07T05:32:08.588Z,101377.44
2023-04-07T05:37:10.915Z,101381.69
2023-04-07T05:42:12.416Z,101379.69
2023-04-07T05:47:13.890Z,101376.63
2023-04-07T05:52:15.431Z,101391.88
2023-04-07T05:57:17.018Z,101399.72
2023-04-07T06:02:18.605Z,101391.16
2023-04-07T06:07:20.059Z,101397.28
2023-04-07T06:12:21.648Z,101408.34
2023-04-07T06:17:23.440Z,101403.34
2023-04-07T06:22:24.927Z,101405.97
2023-04-07T06:27:26.408Z,101410.44
2023-04-07T06:32:28.478Z,101419.75
2023-04-07T06:37:30.083Z,101420.25
2023-04-07T06:42:31.465Z,101427.72
2023-04-07T06:47:33.213Z,101427.03
2023-04-07T06:52:34.644Z,101437.41
2023-04-07T06:57:36.139Z,101445.78
2023-04-07T07:02:37.808Z,101453.47
2023-04-07T07:07:39.318Z,101459.72
2023-04-07T07:12:40.796Z,101467.88
2023-04-07T07:17:42.780Z,101471.16
2023-04-07T07:22:44.258Z,101475.13
2023-04-07T07:27:46.038Z,101476.94
2023-04-07T07:32:47.852Z,101485.78
2023-04-07T07:37:49.309Z,101485.47
2023-04-07T07:42:50.756Z,101486.28
2023-04-07T07:47:52.271Z,101494.50
2023-04-07T07:52:53.887Z,101496.66
2023-04-07T07:57:55.555Z,101504.75
2023-04-07T08:02:57.075Z,101515.09
2023-04-07T08:07:58.627Z,101518.31
2023-04-07T08:13:00.174Z,101528.34
2023-04-07T08:18:04.440Z,101536.53
2023-04-07T08:23:06.235Z,101536.34
2023-04-07T08:28:07.692Z,101538.44
2023-04-07T08:33:09.166Z,101556.94
2023-04-07T08:38:10.700Z,101561.97
2023-04-07T08:43:14.362Z,101568.53
2023-04-07T08:48:18.951Z,101578.88
2023-04-07T08:53:28.054Z,101585.38
2023-04-07T08:58:30.441Z,101582.66
2023-04-07T09:03:33.976Z,101590.47
2023-04-07T09:08:35.580Z,101589.72
2023-04-07T09:13:37.330Z,101591.03
2023-04-07T09:18:38.806Z,101601.78
2023-04-07T09:23:41.976Z,101596.13
2023-04-07T09:28:53.306Z,101604.16
2023-04-07T09:33:55.574Z,101601.69
2023-04-07T09:39:08.639Z,101599.28
2023-04-07T09:44:15.787Z,101589.56
2023-04-07T09:49:21.480Z,101596.16
2023-04-07T09:54:50.015Z,101588.22
2023-04-07T09:59:55.671Z,101588.69
2023-04-07T10:04:57.292Z,101598.69
2023-04-07T10:09:58.759Z,101592.25
2023-04-07T10:15:05.036Z,101584.88
2023-04-07T10:20:10.613Z,101586.16
2023-04-07T10:25:16.690Z,101590.47
2023-04-07T10:30:24.767Z,101595.13
2023-04-07T10:35:28.580Z,101594.91
2023-04-07T10:40:32.641Z,101592.81
2023-04-07T10:45:50.464Z,101601.06
2023-04-07T10:51:08.344Z,101609.47
2023-04-07T10:56:33.835Z,101615.69
2023-04-07T11:01:35.394Z,101616.06
2023-04-07T11:06:47.072Z,101622.00
2023-04-07T11:11:49.225Z,101623.03
2023-04-07T11:16:55.501Z,101623.91
2023-04-07T11:22:30.011Z,101620.22
2023-04-07T11:27:38.181Z,101620.09
2023-04-07T11:32:39.726Z,101626.09
2023-04-07T11:37:42.611Z,101629.91
2023-04-07T11:42:46.262Z,101633.91
2023-04-07T11:47:51.720Z,101634.63
2023-04-07T11:52:53.110Z,101638.63
2023-04-07T11:57:54.579Z,101642.72
2023-04-07T12:02:56.804Z,101647.78
2023-04-07T12:07:58.489Z,101650.56
2023-04-07T12:12:59.988Z,101659.28
2023-04-07T12:18:02.852Z,101662.16
2023-04-07T12:23:04.341Z,101666.63
2023-04-07T12:28:05.914Z,101669.41
2023-04-07T12:33:07.394Z,101672.16
2023-04-07T12:38:09.326Z,101670.00
2023-04-07T12:43:10.817Z,101681.19
2023-04-07T12:48:12.391Z,101677.41
2023-04-07T12:53:13.966Z,101689.97
2023-04-07T12:58:15.448Z,101693.00
2023-04-07T13:03:17.548Z,101694.25
2023-04-07T13:08:19.316Z,101689.97
2023-04-07T13:13:20.718Z,101695.44
2023-04-07T13:18:22.144Z,101698.13
2023-04-07T13:23:23.581Z,101692.09
2023-04-07T13:28:25.064Z,101690.16
2023-04-07T13:33:26.447Z,101693.53
2023-04-07T13:38:28.237Z,101694.41
2023-04-07T13:43:29.696Z,101698.94
2023-04-07T13:48:31.148Z,101694.28
2023-04-07T13:53:32.606Z,101693.91
2023-04-07T13:58:35.012Z,101698.66
2023-04-07T14:03:36.509Z,101694.72
2023-04-07T14:08:38.079Z,101686.28
2023-04-07T14:13:39.518Z,101689.50
2023-04-07T14:18:41.143Z,101695.94
2023-04-07T14:23:42.620Z,101700.75
2023-04-07T14:28:44.116Z,101697.34
2023-04-07T14:33:46.085Z,101707.69
2023-04-07T14:38:47.746Z,101696.44
2023-04-07T14:43:53.653Z,101700.22
2023-04-07T14:48:57.156Z,101697.66
2023-04-07T14:53:58.686Z,101706.44
2023-04-07T14:59:00.155Z,101705.94
2023-04-07T15:04:01.743Z,101708.59
2023-04-07T15:09:03.377Z,101722.47
2023-04-07T15:14:06.640Z,101729.78
2023-04-07T15:19:08.038Z,101735.34
2023-04-07T15:24:09.432Z,101728.78
2023-04-07T15:29:10.890Z,101725.38
2023-04-07T15:34:12.873Z,101724.53
2023-04-07T15:39:14.857Z,101728.06
2023-04-07T15:44:18.799Z,101732.75
2023-04-07T15:49:24.263Z,101739.72
2023-04-07T15:54:27.308Z,101734.75
2023-04-07T15:59:30.828Z,101749.06
2023-04-07T16:04:32.439Z,101747.34
2023-04-07T16:09:33.955Z,101752.41
2023-04-07T16:14:36.255Z,101755.28
2023-04-07T16:19:37.800Z,101756.59
2023-04-07T16:24:39.248Z,101762.63
2023-04-07T16:29:41.084Z,101770.63
2023-04-07T16:34:42.511Z,101769.66
2023-04-07T16:39:43.870Z,101770.72
2023-04-07T16:44:45.546Z,101769.25
2023-04-07T16:49:46.970Z,101783.84
2023-04-07T16:54:48.945Z,101794.66
2023-04-07T16:59:50.533Z,101789.28
2023-04-07T17:04:51.975Z,101793.47
2023-04-07T17:09:53.630Z,101798.53
2023-04-07T17:14:55.055Z,101808.56
2023-04-07T17:19:57.641Z,101810.88
2023-04-07T17:24:59.041Z,101829.06
2023-04-07T17:30:00.799Z,101825.53
2023-04-07T17:35:02.247Z,101841.69
2023-04-07T17:40:04.321Z,101845.13
2023-04-07T17:45:08.293Z,101854.75
2023-04-07T17:50:10.675Z,101860.03
2023-04-07T17:55:12.413Z,101870.44
2023-04-07T18:00:13.981Z,101873.09
2023-04-07T18:05:15.436Z,101881.50
2023-04-07T18:10:18.373Z,101885.78
2023-04-07T18:15:19.789Z,101896.34
2023-04-07T18:20:23.358Z,101898.38
2023-04-07T18:25:24.746Z,101899.84
2023-04-07T18:30:26.396Z,101904.72
2023-04-07T18:35:28.431Z,101913.38
2023-04-07T18:40:34.351Z,101918.09
2023-04-07T18:45:38.737Z,101921.34
2023-04-07T18:50:40.908Z,101924.88
2023-04-07T18:55:44.230Z,101942.63
2023-04-07T19:00:45.791Z,101958.78
2023-04-07T19:05:48.082Z,101961.88
2023-04-07T19:10:51.142Z,101979.88
2023-04-07T19:15:52.935Z,101982.69
2023-04-07T19:20:57.577Z,101995.44
2023-04-07T19:26:05.129Z,102005.03
2023-04-07T19:31:11.062Z,102002.44
2023-04-07T19:36:12.889Z,102004.59
2023-04-07T19:41:14.539Z,102018.16
2023-04-07T19:46:16.553Z,102017.72
2023-04-07T19:51:28.390Z,102021.66
2023-04-07T19:56:29.878Z,102034.66
2023-04-07T20:01:33.616Z,102029.09
2023-04-07T20:06:36.938Z,102039.41
2023-04-07T20:11:38.872Z,102050.41
2023-04-07T20:16:40.465Z,102043.75
2023-04-07T20:21:42.610Z,102043.94
2023-04-07T20:26:53.394Z,102049.47
2023-04-07T20:31:57.452Z,102055.28
2023-04-07T20:37:13.967Z,102061.31
2023-04-07T20:42:19.113Z,102070.34
2023-04-07T20:47:21.939Z,102063.16
2023-04-07T20:52:26.091Z,102063.16
2023-04-07T20:57:31.134Z,102070.59
2023-04-07T21:02:34.205Z,102078.41
2023-04-07T21:07:38.967Z,102085.72
2023-04-07T21:12:41.536Z,102081.91
2023-04-07T21:17:45.718Z,102088.75
2023-04-07T21:22:47.531Z,102088.41
2023-04-07T21:27:50.541Z,102081.41
2023-04-07T21:32:55.022Z,102085.38
2023-04-07T21:37:59.533Z,102088.50
2023-04-07T21:43:02.115Z,102088.16
2023-04-07T21:48:07.340Z,102091.38
2023-04-07T21:53:11.767Z,102085.25
2023-04-07T21:58:20.038Z,102093.44
2023-04-07T22:03:22.201Z,102097.88
2023-04-07T22:08:26.924Z,102097.75
2023-04-07T22:13:32.721Z,102092.91
2023-04-07T22:18:39.454Z,102105.13
2023-04-07T22:23:43.996Z,102111.53
2023-04-07T22:28:45.735Z,102118.09
2023-04-07T22:33:47.469Z,102118.41
2023-04-07T22:38:50.883Z,102124.50
2023-04-07T22:43:52.679Z,102127.50
2023-04-07T22:48:54.315Z,102139.19
2023-04-07T22:53:57.611Z,102146.25
2023-04-07T22:59:08.734Z,102137.16
2023-04-07T23:04:20.473Z,102141.34
2023-04-07T23:09:23.568Z,102128.72
2023-04-07T23:14:25.468Z,102140.69
2023-04-07T23:19:28.520Z,102138.13
2023-04-07T23:24:30.207Z,102143.91
2023-04-07T23:29:36.446Z,102142.09
2023-04-07T23:34:41.369Z,102137.81
2023-04-07T23:39:44.315Z,102140.97
2023-04-07T23:44:48.566Z,102140.59
2023-04-07T23:49:53.234Z,102143.72
2023-04-07T23:54:56.658Z,102144.66
